createdAt,value
2019-02-18T00:01:39.465Z,52.40
2019-02-18T00:04:10.741Z,52.30
2019-02-18T00:06:41.595Z,52.40
2019-02-18T00:09:12.239Z,53.20
2019-02-18T00:11:42.909Z,52.70
2019-02-18T00:14:14.887Z,52.70
2019-02-18T00:16:45.704Z,52.80
2019-02-18T00:19:16.249Z,52.80
2019-02-18T00:21:46.985Z,52.80
2019-02-18T00:24:17.579Z,52.90
2019-02-18T00:26:48.293Z,53.00
2019-02-18T00:29:19.950Z,53.00
2019-02-18T00:31:50.575Z,53.00
2019-02-18T00:34:24.834Z,53.20
2019-02-18T00:36:55.472Z,53.10
2019-02-18T00:39:26.229Z,53.20
2019-02-18T00:42:06.799Z,53.20
2019-02-18T00:44:37.583Z,53.30
2019-02-18T00:47:08.335Z,53.30
2019-02-18T00:49:39.215Z,53.30
2019-02-18T00:52:09.966Z,53.40
2019-02-18T00:54:40.713Z,53.50
2019-02-18T00:57:12.055Z,53.60
2019-02-18T00:59:42.742Z,53.60
2019-02-18T01:02:14.387Z,53.70
2019-02-18T01:04:45.093Z,53.70
2019-02-18T01:07:15.758Z,53.90
2019-02-18T01:09:46.452Z,53.90
2019-02-18T01:12:17.285Z,54.00
2019-02-18T01:14:48.000Z,53.90
2019-02-18T01:17:18.920Z,54.10
2019-02-18T01:19:49.825Z,54.20
2019-02-18T01:22:20.572Z,54.10
2019-02-18T01:24:51.400Z,54.10
2019-02-18T01:27:22.077Z,54.30
2019-02-18T01:29:52.957Z,54.30
2019-02-18T01:32:23.739Z,54.30
2019-02-18T01:34:54.666Z,54.30
2019-02-18T01:37:25.886Z,54.40
2019-02-18T01:39:56.864Z,54.40
2019-02-18T01:42:27.744Z,54.50
2019-02-18T01:45:02.243Z,54.60
2019-02-18T01:47:33.140Z,54.60
2019-02-18T01:50:04.074Z,54.70
2019-02-18T01:52:35.252Z,54.70
2019-02-18T01:55:06.416Z,54.80
2019-02-18T01:57:37.266Z,54.70
2019-02-18T02:00:10.528Z,54.80
2019-02-18T02:02:41.425Z,54.90
2019-02-18T02:05:15.699Z,54.90
2019-02-18T02:07:55.337Z,55.00
2019-02-18T02:10:18.696Z,55.70
2019-02-18T02:12:49.373Z,55.00
2019-02-18T02:15:23.292Z,55.10
2019-02-18T02:17:54.030Z,55.10
2019-02-18T02:20:24.715Z,55.10
2019-02-18T02:22:55.403Z,55.20
2019-02-18T02:25:26.030Z,55.20
2019-02-18T02:27:56.697Z,55.30
2019-02-18T02:30:27.401Z,55.30
2019-02-18T02:32:58.028Z,55.30
2019-02-18T02:35:28.636Z,55.30
2019-02-18T02:38:07.401Z,55.30
2019-02-18T02:40:31.652Z,55.40
2019-02-18T02:43:02.195Z,55.30
2019-02-18T02:45:32.765Z,55.50
2019-02-18T02:48:03.373Z,56.20
2019-02-18T02:50:34.054Z,55.60
2019-02-18T02:53:04.710Z,55.60
2019-02-18T02:55:35.515Z,55.60
2019-02-18T02:58:06.175Z,55.70
2019-02-18T03:00:38.059Z,55.70
2019-02-18T03:03:08.795Z,55.70
2019-02-18T03:05:39.452Z,55.70
2019-02-18T03:08:20.032Z,55.90
2019-02-18T03:10:42.434Z,55.80
2019-02-18T03:13:13.316Z,55.80
2019-02-18T03:15:44.052Z,55.90
2019-02-18T03:18:14.724Z,55.90
2019-02-18T03:20:45.439Z,55.90
2019-02-18T03:23:16.185Z,56.10
2019-02-18T03:25:49.006Z,56.00
2019-02-18T03:28:32.805Z,56.10
2019-02-18T03:31:07.281Z,56.20
2019-02-18T03:33:45.517Z,56.20
2019-02-18T03:36:16.104Z,56.20
2019-02-18T03:38:46.765Z,56.20
2019-02-18T03:41:17.547Z,56.30
2019-02-18T03:43:48.216Z,56.40
2019-02-18T03:46:18.845Z,56.50
2019-02-18T03:48:49.411Z,56.50
2019-02-18T03:51:19.967Z,56.40
2019-02-18T03:53:50.539Z,56.50
2019-02-18T03:56:21.195Z,56.60
2019-02-18T03:58:51.751Z,56.60
2019-02-18T04:01:22.286Z,56.60
2019-02-18T04:03:52.862Z,56.60
2019-02-18T04:06:23.486Z,56.70
2019-02-18T04:08:54.113Z,56.70
2019-02-18T04:11:24.729Z,56.80
2019-02-18T04:13:55.257Z,57.00
2019-02-18T04:16:26.261Z,56.90
2019-02-18T04:18:56.990Z,56.90
2019-02-18T04:21:27.742Z,57.00
2019-02-18T04:23:58.370Z,57.00
2019-02-18T04:26:28.944Z,57.00
2019-02-18T04:28:59.966Z,57.60
2019-02-18T04:31:30.686Z,57.00
2019-02-18T04:34:01.319Z,57.20
2019-02-18T04:36:31.953Z,57.10
2019-02-18T04:39:02.961Z,57.10
2019-02-18T04:41:35.295Z,57.10
2019-02-18T04:44:05.961Z,57.30
2019-02-18T04:46:36.524Z,57.20
2019-02-18T04:49:07.045Z,57.40
2019-02-18T04:51:37.609Z,58.00
2019-02-18T04:54:08.261Z,57.50
2019-02-18T04:56:39.337Z,57.50
2019-02-18T04:59:09.898Z,57.50
2019-02-18T05:01:40.500Z,57.50
2019-02-18T05:04:13.770Z,57.70
2019-02-18T05:06:43.326Z,57.70
2019-02-18T05:09:14.281Z,57.60
2019-02-18T05:11:44.907Z,57.70
2019-02-18T05:14:15.661Z,57.70
2019-02-18T05:16:47.727Z,57.70
2019-02-18T05:19:18.393Z,57.70
2019-02-18T05:21:49.094Z,57.80
2019-02-18T05:24:19.725Z,57.80
2019-02-18T05:26:50.429Z,57.90
2019-02-18T05:29:20.988Z,57.90
2019-02-18T05:31:51.757Z,58.10
2019-02-18T05:34:22.475Z,58.10
2019-02-18T05:36:53.061Z,58.10
2019-02-18T05:39:23.850Z,58.20
2019-02-18T05:41:54.998Z,58.30
2019-02-18T05:44:25.721Z,58.30
2019-02-18T05:46:56.439Z,58.90
2019-02-18T05:49:27.141Z,58.40
2019-02-18T05:51:57.902Z,58.40
2019-02-18T05:54:28.608Z,58.50
2019-02-18T05:56:59.300Z,58.60
2019-02-18T05:59:30.009Z,58.60
2019-02-18T06:02:00.654Z,58.70
2019-02-18T06:04:31.193Z,58.70
2019-02-18T06:07:02.116Z,58.80
2019-02-18T06:09:32.798Z,58.90
2019-02-18T06:12:03.398Z,58.90
2019-02-18T06:14:34.339Z,58.90
2019-02-18T06:17:05.059Z,58.90
2019-02-18T06:19:35.679Z,59.00
2019-02-18T06:22:06.348Z,59.10
2019-02-18T06:24:36.897Z,59.10
2019-02-18T06:27:07.533Z,59.20
2019-02-18T06:29:38.161Z,59.20
2019-02-18T06:32:08.760Z,59.20
2019-02-18T06:34:39.797Z,59.20
2019-02-18T06:37:10.434Z,59.20
2019-02-18T06:39:42.053Z,59.20
2019-02-18T06:42:12.704Z,59.30
2019-02-18T06:45:05.271Z,59.80
2019-02-18T06:47:35.972Z,59.30
2019-02-18T06:50:07.104Z,59.00
2019-02-18T06:52:37.753Z,58.20
2019-02-18T06:55:08.472Z,56.80
2019-02-18T06:58:01.351Z,56.20
2019-02-18T07:00:38.159Z,56.00
2019-02-18T07:03:29.033Z,55.50
2019-02-18T07:06:27.678Z,54.60
2019-02-18T07:09:20.395Z,54.20
2019-02-18T07:12:05.705Z,54.60
2019-02-18T07:14:36.435Z,55.30
2019-02-18T07:17:06.994Z,55.50
2019-02-18T07:19:37.669Z,55.60
2019-02-18T07:22:08.323Z,55.40
2019-02-18T07:24:38.921Z,54.80
2019-02-18T07:27:09.957Z,53.40
2019-02-18T07:29:40.638Z,52.60
2019-02-18T07:32:11.308Z,50.50
2019-02-18T07:34:42.090Z,47.60
2019-02-18T07:37:12.807Z,45.80
2019-02-18T07:39:43.486Z,44.70
2019-02-18T07:42:14.136Z,44.30
2019-02-18T07:44:44.755Z,44.10
2019-02-18T07:47:15.456Z,44.70
2019-02-18T07:49:46.214Z,44.70
2019-02-18T07:52:17.401Z,45.50
2019-02-18T07:54:48.114Z,44.80
2019-02-18T07:57:18.767Z,44.60
2019-02-18T07:59:49.505Z,44.30
2019-02-18T08:02:20.196Z,43.70
2019-02-18T08:04:50.916Z,43.20
2019-02-18T08:07:21.792Z,42.00
2019-02-18T08:09:53.384Z,41.70
2019-02-18T08:12:24.190Z,41.00
2019-02-18T08:14:55.756Z,40.60
2019-02-18T08:17:27.504Z,39.10
2019-02-18T08:19:58.554Z,38.70
2019-02-18T08:22:29.768Z,37.60
2019-02-18T08:25:01.666Z,37.80
2019-02-18T08:27:35.874Z,38.50
2019-02-18T08:30:09.268Z,38.30
2019-02-18T08:32:41.827Z,39.20
2019-02-18T08:35:14.073Z,39.70
2019-02-18T08:37:46.178Z,39.90
2019-02-18T08:40:22.512Z,39.20
2019-02-18T08:42:51.466Z,38.20
2019-02-18T08:45:23.180Z,37.70
2019-02-18T08:47:54.900Z,36.40
2019-02-18T08:50:26.670Z,35.40
2019-02-18T08:52:58.130Z,34.40
2019-02-18T08:55:28.868Z,32.50
2019-02-18T08:57:59.558Z,32.80
2019-02-18T09:00:30.509Z,32.10
2019-02-18T09:03:01.058Z,31.40
2019-02-18T09:05:31.711Z,30.30
2019-02-18T09:08:02.431Z,29.90
2019-02-18T09:10:34.105Z,29.30
2019-02-18T09:13:04.974Z,29.00
2019-02-18T09:15:35.602Z,28.40
2019-02-18T09:18:06.233Z,28.10
2019-02-18T09:20:36.840Z,27.70
2019-02-18T09:23:18.548Z,27.30
2019-02-18T09:25:51.553Z,27.30
2019-02-18T09:28:22.253Z,26.70
2019-02-18T09:30:54.757Z,26.50
2019-02-18T09:33:25.404Z,26.40
2019-02-18T09:36:15.069Z,25.90
2019-02-18T09:38:45.762Z,25.80
2019-02-18T09:41:16.335Z,25.50
2019-02-18T09:43:47.018Z,25.00
2019-02-18T09:46:18.342Z,25.00
2019-02-18T09:48:49.172Z,24.90
2019-02-18T09:51:19.827Z,24.70
2019-02-18T09:53:50.862Z,24.50
2019-02-18T09:56:21.651Z,24.20
2019-02-18T09:58:52.301Z,24.10
2019-02-18T10:01:22.864Z,24.00
2019-02-18T10:03:53.605Z,23.90
2019-02-18T10:06:24.344Z,23.90
2019-02-18T10:08:55.437Z,23.80
2019-02-18T10:11:26.162Z,23.70
2019-02-18T10:13:56.701Z,23.50
2019-02-18T10:16:27.310Z,23.40
2019-02-18T10:18:58.057Z,23.30
2019-02-18T10:21:40.110Z,23.40
2019-02-18T10:24:10.929Z,23.50
2019-02-18T10:26:41.530Z,23.50
2019-02-18T10:29:13.424Z,23.50
2019-02-18T10:31:44.049Z,23.40
2019-02-18T10:34:15.816Z,23.40
2019-02-18T10:36:46.461Z,23.70
2019-02-18T10:39:17.158Z,23.80
2019-02-18T10:41:47.725Z,24.10
2019-02-18T10:44:18.341Z,24.40
2019-02-18T10:46:48.938Z,24.90
2019-02-18T10:49:21.126Z,25.60
2019-02-18T10:51:52.311Z,26.30
2019-02-18T10:54:23.049Z,27.00
2019-02-18T10:56:53.727Z,27.70
2019-02-18T10:59:24.391Z,28.10
2019-02-18T11:01:54.965Z,28.50
2019-02-18T11:04:25.938Z,28.70
2019-02-18T11:06:56.663Z,29.10
2019-02-18T11:09:27.281Z,29.30
2019-02-18T11:11:57.985Z,29.50
2019-02-18T11:14:28.614Z,29.80
2019-02-18T11:16:59.441Z,29.70
2019-02-18T11:19:30.247Z,29.70
2019-02-18T11:22:01.240Z,29.70
2019-02-18T11:24:32.351Z,29.90
2019-02-18T11:27:03.109Z,30.40
2019-02-18T11:29:33.792Z,29.80
2019-02-18T11:32:04.436Z,29.70
2019-02-18T11:34:35.219Z,29.60
2019-02-18T11:37:05.926Z,29.70
2019-02-18T11:39:36.630Z,29.60
2019-02-18T11:42:07.236Z,29.60
2019-02-18T11:44:38.212Z,29.50
2019-02-18T11:47:08.974Z,29.50
2019-02-18T11:49:39.584Z,29.60
2019-02-18T11:52:10.581Z,29.60
2019-02-18T11:54:41.654Z,29.70
2019-02-18T11:57:12.391Z,29.70
2019-02-18T11:59:43.181Z,29.70
2019-02-18T12:02:13.867Z,29.70
2019-02-18T12:04:44.538Z,29.60
2019-02-18T12:07:15.272Z,29.60
2019-02-18T12:09:46.313Z,29.50
2019-02-18T12:12:17.066Z,29.60
2019-02-18T12:14:48.264Z,29.70
2019-02-18T12:17:20.798Z,29.60
2019-02-18T12:19:51.750Z,29.60
2019-02-18T12:22:22.526Z,29.60
2019-02-18T12:24:53.346Z,29.60
2019-02-18T12:27:24.508Z,29.60
2019-02-18T12:29:55.189Z,29.60
2019-02-18T12:32:25.959Z,29.70
2019-02-18T12:34:56.793Z,29.70
2019-02-18T12:37:29.968Z,29.80
2019-02-18T12:39:59.962Z,29.90
2019-02-18T12:42:30.794Z,29.80
2019-02-18T12:45:01.510Z,29.70
2019-02-18T12:47:32.723Z,29.70
2019-02-18T12:50:03.934Z,29.80
2019-02-18T12:52:34.683Z,29.80
2019-02-18T12:55:05.463Z,29.90
2019-02-18T12:57:36.511Z,29.80
2019-02-18T13:00:08.229Z,29.90
2019-02-18T13:02:44.265Z,29.90
2019-02-18T13:05:12.888Z,30.00
2019-02-18T13:07:43.569Z,29.90
2019-02-18T13:10:14.829Z,30.00
2019-02-18T13:12:45.965Z,29.90
2019-02-18T13:15:16.725Z,30.00
2019-02-18T13:17:47.748Z,30.00
2019-02-18T13:20:18.472Z,29.90
2019-02-18T13:22:50.480Z,30.00
2019-02-18T13:25:21.170Z,30.30
2019-02-18T13:27:52.210Z,30.00
2019-02-18T13:30:22.973Z,30.00
2019-02-18T13:32:53.758Z,30.00
2019-02-18T13:35:24.452Z,30.00
2019-02-18T13:37:55.260Z,30.00
2019-02-18T13:40:26.463Z,30.00
2019-02-18T13:42:58.116Z,30.00
2019-02-18T13:45:28.837Z,30.00
2019-02-18T13:48:00.132Z,30.00
2019-02-18T13:50:31.136Z,30.10
2019-02-18T13:53:01.794Z,30.10
2019-02-18T13:55:32.535Z,30.10
2019-02-18T13:58:03.616Z,30.90
2019-02-18T14:00:34.414Z,30.30
2019-02-18T14:03:05.029Z,30.40
2019-02-18T14:05:35.750Z,30.40
2019-02-18T14:08:06.742Z,30.30
2019-02-18T14:10:37.362Z,30.40
2019-02-18T14:13:08.170Z,30.50
2019-02-18T14:15:38.829Z,30.50
2019-02-18T14:18:09.560Z,30.50
2019-02-18T14:20:40.524Z,30.50
2019-02-18T14:23:11.493Z,30.60
2019-02-18T14:25:42.599Z,30.60
2019-02-18T14:28:13.279Z,30.60
2019-02-18T14:30:43.836Z,30.70
2019-02-18T14:33:16.164Z,30.70
2019-02-18T14:35:46.926Z,30.80
2019-02-18T14:38:17.733Z,30.80
2019-02-18T14:40:48.728Z,30.90
2019-02-18T14:43:19.492Z,31.00
2019-02-18T14:45:50.145Z,31.00
2019-02-18T14:48:20.840Z,31.10
2019-02-18T14:50:56.748Z,31.20
2019-02-18T14:53:24.306Z,31.30
2019-02-18T14:55:55.386Z,31.40
2019-02-18T14:58:26.063Z,31.40
2019-02-18T15:00:56.890Z,31.50
2019-02-18T15:03:27.857Z,31.50
2019-02-18T15:05:58.459Z,31.70
2019-02-18T15:08:30.341Z,31.70
2019-02-18T15:11:01.754Z,31.80
2019-02-18T15:13:32.809Z,31.90
2019-02-18T15:16:03.546Z,32.00
2019-02-18T15:18:34.695Z,32.10
2019-02-18T15:21:05.278Z,32.20
2019-02-18T15:23:36.057Z,32.20
2019-02-18T15:26:07.045Z,32.30
2019-02-18T15:28:37.824Z,32.50
2019-02-18T15:31:09.918Z,32.50
2019-02-18T15:33:40.726Z,32.50
2019-02-18T15:36:11.496Z,32.70
2019-02-18T15:38:43.944Z,32.80
2019-02-18T15:41:14.810Z,32.80
2019-02-18T15:43:45.447Z,32.90
2019-02-18T15:46:16.114Z,33.00
2019-02-18T15:48:46.917Z,33.20
2019-02-18T15:51:17.760Z,33.20
2019-02-18T15:53:48.539Z,33.30
2019-02-18T15:56:19.277Z,33.40
2019-02-18T15:58:50.100Z,33.60
2019-02-18T16:01:20.859Z,33.80
2019-02-18T16:03:51.605Z,33.90
2019-02-18T16:06:22.335Z,33.90
2019-02-18T16:08:52.936Z,34.00
2019-02-18T16:11:23.523Z,34.10
2019-02-18T16:13:54.409Z,34.20
2019-02-18T16:16:25.089Z,34.40
2019-02-18T16:18:56.237Z,34.40
2019-02-18T16:21:26.946Z,34.50
2019-02-18T16:23:57.666Z,34.60
2019-02-18T16:26:28.305Z,34.70
2019-02-18T16:28:59.442Z,34.80
2019-02-18T16:31:30.566Z,35.00
2019-02-18T16:34:01.638Z,35.10
2019-02-18T16:36:32.445Z,35.50
2019-02-18T16:39:05.365Z,35.40
2019-02-18T16:41:37.953Z,35.60
2019-02-18T16:44:08.721Z,35.70
2019-02-18T16:46:39.385Z,35.70
2019-02-18T16:49:10.417Z,35.70
2019-02-18T16:51:41.077Z,35.70
2019-02-18T16:54:11.743Z,35.70
2019-02-18T16:56:42.589Z,35.80
2019-02-18T16:59:13.564Z,35.90
2019-02-18T17:01:44.204Z,36.00
2019-02-18T17:04:14.849Z,36.10
2019-02-18T17:06:45.553Z,36.20
2019-02-18T17:09:16.371Z,36.40
2019-02-18T17:11:47.112Z,36.40
2019-02-18T17:14:17.749Z,36.50
2019-02-18T17:16:48.393Z,37.10
2019-02-18T17:19:19.147Z,36.80
2019-02-18T17:21:49.751Z,36.80
2019-02-18T17:24:20.767Z,36.80
2019-02-18T17:26:51.469Z,36.90
2019-02-18T17:29:22.224Z,37.00
2019-02-18T17:31:52.887Z,36.90
2019-02-18T17:34:23.621Z,37.30
2019-02-18T17:36:54.390Z,37.30
2019-02-18T17:39:25.171Z,37.40
2019-02-18T17:41:56.096Z,37.40
2019-02-18T17:44:26.724Z,37.50
2019-02-18T17:46:57.392Z,37.60
2019-02-18T17:49:27.946Z,37.60
2019-02-18T17:51:58.824Z,37.70
2019-02-18T17:54:30.578Z,37.80
2019-02-18T17:57:01.177Z,37.80
2019-02-18T17:59:31.790Z,37.90
2019-02-18T18:02:02.564Z,37.80
2019-02-18T18:04:33.810Z,37.90
2019-02-18T18:07:04.543Z,38.00
2019-02-18T18:09:35.216Z,38.10
2019-02-18T18:12:05.823Z,38.20
2019-02-18T18:14:36.654Z,38.30
2019-02-18T18:17:07.319Z,38.30
2019-02-18T18:19:38.407Z,38.50
2019-02-18T18:22:09.265Z,38.50
2019-02-18T18:24:39.947Z,38.50
2019-02-18T18:27:10.686Z,38.60
2019-02-18T18:29:41.408Z,38.70
2019-02-18T18:32:12.517Z,38.70
2019-02-18T18:34:43.991Z,38.90
2019-02-18T18:37:14.749Z,38.90
2019-02-18T18:39:45.509Z,39.00
2019-02-18T18:42:16.379Z,39.10
2019-02-18T18:44:47.337Z,39.30
2019-02-18T18:47:18.165Z,39.50
2019-02-18T18:49:48.912Z,39.60
2019-02-18T18:52:20.103Z,39.60
2019-02-18T18:54:50.701Z,39.90
2019-02-18T18:57:21.942Z,40.00
2019-02-18T18:59:52.603Z,40.10
2019-02-18T19:02:23.296Z,40.10
2019-02-18T19:04:54.042Z,40.20
2019-02-18T19:07:25.063Z,40.30
2019-02-18T19:09:56.191Z,40.40
2019-02-18T19:12:26.860Z,40.60
2019-02-18T19:15:06.109Z,40.50
2019-02-18T19:17:38.064Z,40.70
2019-02-18T19:20:09.064Z,40.60
2019-02-18T19:22:39.837Z,40.90
2019-02-18T19:25:10.785Z,41.00
2019-02-18T19:27:41.677Z,41.10
2019-02-18T19:30:14.394Z,41.80
2019-02-18T19:32:45.438Z,41.20
2019-02-18T19:35:16.159Z,41.20
2019-02-18T19:37:47.074Z,41.30
2019-02-18T19:40:17.753Z,41.40
2019-02-18T19:42:48.354Z,41.60
2019-02-18T19:45:20.089Z,41.60
2019-02-18T19:47:51.865Z,41.60
2019-02-18T19:50:22.627Z,41.70
2019-02-18T19:52:53.736Z,42.00
2019-02-18T19:55:25.504Z,41.90
2019-02-18T19:57:56.877Z,42.00
2019-02-18T20:00:27.537Z,42.00
2019-02-18T20:02:58.227Z,42.20
2019-02-18T20:05:31.213Z,43.10
2019-02-18T20:08:02.020Z,42.50
2019-02-18T20:10:33.000Z,42.50
2019-02-18T20:13:04.141Z,42.60
2019-02-18T20:15:35.358Z,42.60
2019-02-18T20:18:06.169Z,42.70
2019-02-18T20:20:40.252Z,42.70
2019-02-18T20:23:25.422Z,42.90
2019-02-18T20:25:59.864Z,42.80
2019-02-18T20:28:40.961Z,42.90
2019-02-18T20:31:12.005Z,43.00
2019-02-18T20:33:42.910Z,42.90
2019-02-18T20:36:13.562Z,43.10
2019-02-18T20:38:44.619Z,43.90
2019-02-18T20:41:15.307Z,43.30
2019-02-18T20:43:45.974Z,44.10
2019-02-18T20:46:16.725Z,43.50
2019-02-18T20:48:48.667Z,43.50
2019-02-18T20:51:19.390Z,43.50
2019-02-18T20:53:50.122Z,43.60
2019-02-18T20:56:20.947Z,43.60
2019-02-18T20:58:51.616Z,43.70
2019-02-18T21:01:22.314Z,43.70
2019-02-18T21:03:53.051Z,43.90
2019-02-18T21:06:23.755Z,44.00
2019-02-18T21:08:54.476Z,44.00
2019-02-18T21:11:25.285Z,44.10
2019-02-18T21:13:55.963Z,44.20
2019-02-18T21:16:26.696Z,44.20
2019-02-18T21:18:57.326Z,44.50
2019-02-18T21:21:28.399Z,44.50
2019-02-18T21:23:59.377Z,44.70
2019-02-18T21:26:31.294Z,45.50
2019-02-18T21:29:01.966Z,45.20
2019-02-18T21:31:32.945Z,45.40
2019-02-18T21:34:03.604Z,45.30
2019-02-18T21:36:34.783Z,45.40
2019-02-18T21:39:11.894Z,45.50
2019-02-18T21:41:42.961Z,45.40
2019-02-18T21:44:14.536Z,45.40
2019-02-18T21:46:45.430Z,45.60
2019-02-18T21:49:16.659Z,45.50
2019-02-18T21:51:48.559Z,45.50
2019-02-18T21:54:20.229Z,45.60
2019-02-18T21:56:50.896Z,45.70
2019-02-18T21:59:21.587Z,45.70
2019-02-18T22:01:53.692Z,45.80
2019-02-18T22:04:25.545Z,45.90
2019-02-18T22:06:57.263Z,46.10
2019-02-18T22:09:30.127Z,46.40
2019-02-18T22:12:01.834Z,46.70
2019-02-18T22:14:35.757Z,46.60
2019-02-18T22:17:07.316Z,46.70
2019-02-18T22:19:39.870Z,46.80
2019-02-18T22:22:11.630Z,46.90
2019-02-18T22:24:43.259Z,46.90
2019-02-18T22:27:14.354Z,47.20
2019-02-18T22:29:44.987Z,47.10
2019-02-18T22:32:15.737Z,47.00
2019-02-18T22:34:46.666Z,47.10
2019-02-18T22:37:17.423Z,47.10
2019-02-18T22:39:47.941Z,47.00
2019-02-18T22:42:18.614Z,47.10
2019-02-18T22:44:49.423Z,47.30
2019-02-18T22:47:20.009Z,47.30
2019-02-18T22:49:50.661Z,47.20
2019-02-18T22:52:21.276Z,47.30
2019-02-18T22:54:52.216Z,47.40
2019-02-18T22:57:22.813Z,47.50
2019-02-18T22:59:53.542Z,47.50
2019-02-18T23:02:25.191Z,47.60
2019-02-18T23:04:55.931Z,47.60
2019-02-18T23:07:26.635Z,47.80
2019-02-18T23:09:57.340Z,47.80
2019-02-18T23:12:28.317Z,47.80
2019-02-18T23:14:59.463Z,47.90
2019-02-18T23:17:30.120Z,47.90
2019-02-18T23:20:00.825Z,48.00
2019-02-18T23:22:33.260Z,48.00
2019-02-18T23:25:03.967Z,48.10
2019-02-18T23:27:34.704Z,48.00
2019-02-18T23:30:06.299Z,48.10
2019-02-18T23:32:39.053Z,48.10
2019-02-18T23:35:11.586Z,48.00
2019-02-18T23:37:42.301Z,48.00
2019-02-18T23:40:12.959Z,48.20
2019-02-18T23:42:44.015Z,48.20
2019-02-18T23:45:15.768Z,48.40
2019-02-18T23:47:46.401Z,48.40
2019-02-18T23:50:17.129Z,48.30
2019-02-18T23:52:47.847Z,48.30
2019-02-18T23:55:18.507Z,48.30
2019-02-18T23:57:49.252Z,48.50
